sensor_id;sensor_type;location;lat;lon;timestamp;temperature;humidity
69436;SHT31;56625;54.322;18.582;2022-07-18T00:02:10;13.97;77.25
69436;SHT31;56625;54.322;18.582;2022-07-18T00:04:38;14.00;77.29
69436;SHT31;56625;54.322;18.582;2022-07-18T00:07:06;14.04;77.34
69436;SHT31;56625;54.322;18.582;2022-07-18T00:09:34;14.08;77.31
69436;SHT31;56625;54.322;18.582;2022-07-18T00:12:04;14.11;77.66
69436;SHT31;56625;54.322;18.582;2022-07-18T00:14:34;14.12;77.79
69436;SHT31;56625;54.322;18.582;2022-07-18T00:17:05;14.11;77.92
69436;SHT31;56625;54.322;18.582;2022-07-18T00:19:34;14.13;77.79
69436;SHT31;56625;54.322;18.582;2022-07-18T00:22:04;14.15;78.00
69436;SHT31;56625;54.322;18.582;2022-07-18T00:24:33;14.17;78.10
69436;SHT31;56625;54.322;18.582;2022-07-18T00:27:01;14.17;78.11
69436;SHT31;56625;54.322;18.582;2022-07-18T00:29:30;14.20;78.21
69436;SHT31;56625;54.322;18.582;2022-07-18T00:31:58;14.27;78.47
69436;SHT31;56625;54.322;18.582;2022-07-18T00:34:25;14.32;78.49
69436;SHT31;56625;54.322;18.582;2022-07-18T00:37:05;14.35;78.48
69436;SHT31;56625;54.322;18.582;2022-07-18T00:39:34;14.40;78.46
69436;SHT31;56625;54.322;18.582;2022-07-18T00:42:02;14.48;78.47
69436;SHT31;56625;54.322;18.582;2022-07-18T00:44:30;14.52;78.26
69436;SHT31;56625;54.322;18.582;2022-07-18T00:46:59;14.54;78.27
69436;SHT31;56625;54.322;18.582;2022-07-18T00:49:29;14.55;78.57
69436;SHT31;56625;54.322;18.582;2022-07-18T00:51:57;14.57;78.52
69436;SHT31;56625;54.322;18.582;2022-07-18T00:54:25;14.61;78.43
69436;SHT31;56625;54.322;18.582;2022-07-18T00:56:53;14.64;78.48
69436;SHT31;56625;54.322;18.582;2022-07-18T00:59:21;14.64;78.46
69436;SHT31;56625;54.322;18.582;2022-07-18T01:01:50;14.65;78.49
69436;SHT31;56625;54.322;18.582;2022-07-18T01:04:19;14.69;78.53
69436;SHT31;56625;54.322;18.582;2022-07-18T01:06:50;14.72;78.48
69436;SHT31;56625;54.322;18.582;2022-07-18T01:09:19;14.72;78.43
69436;SHT31;56625;54.322;18.582;2022-07-18T01:11:47;14.75;78.55
69436;SHT31;56625;54.322;18.582;2022-07-18T01:14:15;14.66;79.21
69436;SHT31;56625;54.322;18.582;2022-07-18T01:16:43;14.59;79.97
69436;SHT31;56625;54.322;18.582;2022-07-18T01:19:11;14.52;80.61
69436;SHT31;56625;54.322;18.582;2022-07-18T01:21:39;14.48;80.84
69436;SHT31;56625;54.322;18.582;2022-07-18T01:24:07;14.46;81.13
69436;SHT31;56625;54.322;18.582;2022-07-18T01:26:36;14.46;80.89
69436;SHT31;56625;54.322;18.582;2022-07-18T01:29:04;14.47;80.85
69436;SHT31;56625;54.322;18.582;2022-07-18T01:31:32;14.47;80.97
69436;SHT31;56625;54.322;18.582;2022-07-18T01:34:01;14.48;81.31
69436;SHT31;56625;54.322;18.582;2022-07-18T01:36:31;14.47;81.56
69436;SHT31;56625;54.322;18.582;2022-07-18T01:38:59;14.46;81.96
69436;SHT31;56625;54.322;18.582;2022-07-18T01:41:28;14.44;82.11
69436;SHT31;56625;54.322;18.582;2022-07-18T01:43:55;14.44;81.82
69436;SHT31;56625;54.322;18.582;2022-07-18T01:46:23;14.43;82.22
69436;SHT31;56625;54.322;18.582;2022-07-18T01:48:51;14.40;82.54
69436;SHT31;56625;54.322;18.582;2022-07-18T01:51:19;14.40;82.50
69436;SHT31;56625;54.322;18.582;2022-07-18T01:53:53;14.39;82.52
69436;SHT31;56625;54.322;18.582;2022-07-18T01:56:25;14.38;82.68
69436;SHT31;56625;54.322;18.582;2022-07-18T01:58:53;14.35;82.89
69436;SHT31;56625;54.322;18.582;2022-07-18T02:01:22;14.35;83.08
69436;SHT31;56625;54.322;18.582;2022-07-18T02:03:49;14.33;83.19
69436;SHT31;56625;54.322;18.582;2022-07-18T02:06:20;14.32;83.30
69436;SHT31;56625;54.322;18.582;2022-07-18T02:08:48;14.31;83.31
69436;SHT31;56625;54.322;18.582;2022-07-18T02:11:16;14.32;83.29
69436;SHT31;56625;54.322;18.582;2022-07-18T02:13:44;14.31;83.46
69436;SHT31;56625;54.322;18.582;2022-07-18T02:16:12;14.31;83.46
69436;SHT31;56625;54.322;18.582;2022-07-18T02:18:39;14.31;83.60
69436;SHT31;56625;54.322;18.582;2022-07-18T02:21:09;14.31;83.55
69436;SHT31;56625;54.322;18.582;2022-07-18T02:23:37;14.30;83.32
69436;SHT31;56625;54.322;18.582;2022-07-18T02:26:05;14.31;83.46
69436;SHT31;56625;54.322;18.582;2022-07-18T02:28:33;14.30;83.67
69436;SHT31;56625;54.322;18.582;2022-07-18T02:31:02;14.32;83.44
69436;SHT31;56625;54.322;18.582;2022-07-18T02:33:32;14.33;83.30
69436;SHT31;56625;54.322;18.582;2022-07-18T02:36:01;14.35;83.21
69436;SHT31;56625;54.322;18.582;2022-07-18T02:38:30;14.38;83.11
69436;SHT31;56625;54.322;18.582;2022-07-18T02:40:58;14.41;82.99
69436;SHT31;56625;54.322;18.582;2022-07-18T02:43:26;14.42;83.11
69436;SHT31;56625;54.322;18.582;2022-07-18T02:45:55;14.42;83.33
69436;SHT31;56625;54.322;18.582;2022-07-18T02:48:23;14.42;83.44
69436;SHT31;56625;54.322;18.582;2022-07-18T02:50:51;14.42;83.74
69436;SHT31;56625;54.322;18.582;2022-07-18T02:53:19;14.42;83.82
69436;SHT31;56625;54.322;18.582;2022-07-18T02:55:49;14.42;84.11
69436;SHT31;56625;54.322;18.582;2022-07-18T02:58:18;14.43;83.98
69436;SHT31;56625;54.322;18.582;2022-07-18T03:00:46;14.43;83.94
69436;SHT31;56625;54.322;18.582;2022-07-18T03:03:14;14.45;84.02
69436;SHT31;56625;54.322;18.582;2022-07-18T03:05:42;14.45;84.29
69436;SHT31;56625;54.322;18.582;2022-07-18T03:08:10;14.47;84.29
69436;SHT31;56625;54.322;18.582;2022-07-18T03:10:37;14.48;84.18
69436;SHT31;56625;54.322;18.582;2022-07-18T03:13:06;14.51;83.96
69436;SHT31;56625;54.322;18.582;2022-07-18T03:15:34;14.53;84.06
69436;SHT31;56625;54.322;18.582;2022-07-18T03:18:02;14.56;83.96
69436;SHT31;56625;54.322;18.582;2022-07-18T03:20:30;14.58;84.10
69436;SHT31;56625;54.322;18.582;2022-07-18T03:22:59;14.60;84.05
69436;SHT31;56625;54.322;18.582;2022-07-18T03:25:33;14.64;83.89
69436;SHT31;56625;54.322;18.582;2022-07-18T03:28:02;14.68;83.75
69436;SHT31;56625;54.322;18.582;2022-07-18T03:30:30;14.70;83.83
69436;SHT31;56625;54.322;18.582;2022-07-18T03:32:58;14.73;83.85
69436;SHT31;56625;54.322;18.582;2022-07-18T03:35:32;14.75;83.80
69436;SHT31;56625;54.322;18.582;2022-07-18T03:38:00;14.78;83.76
69436;SHT31;56625;54.322;18.582;2022-07-18T03:40:28;14.82;83.82
69436;SHT31;56625;54.322;18.582;2022-07-18T03:42:56;14.85;83.79
69436;SHT31;56625;54.322;18.582;2022-07-18T03:45:24;14.87;83.64
69436;SHT31;56625;54.322;18.582;2022-07-18T03:47:52;14.90;83.57
69436;SHT31;56625;54.322;18.582;2022-07-18T03:50:20;14.94;83.58
69436;SHT31;56625;54.322;18.582;2022-07-18T03:52:48;14.97;83.60
69436;SHT31;56625;54.322;18.582;2022-07-18T03:55:16;15.00;83.56
69436;SHT31;56625;54.322;18.582;2022-07-18T03:57:44;15.03;83.48
69436;SHT31;56625;54.322;18.582;2022-07-18T04:00:12;15.07;83.37
69436;SHT31;56625;54.322;18.582;2022-07-18T04:02:45;15.11;83.27
69436;SHT31;56625;54.322;18.582;2022-07-18T04:05:15;15.15;83.22
69436;SHT31;56625;54.322;18.582;2022-07-18T04:07:44;15.17;83.30
69436;SHT31;56625;54.322;18.582;2022-07-18T04:10:12;15.21;83.17
69436;SHT31;56625;54.322;18.582;2022-07-18T04:12:44;15.26;83.17
69436;SHT31;56625;54.322;18.582;2022-07-18T04:15:20;15.30;83.16
69436;SHT31;56625;54.322;18.582;2022-07-18T04:17:50;15.34;83.11
69436;SHT31;56625;54.322;18.582;2022-07-18T04:20:20;15.37;83.03
69436;SHT31;56625;54.322;18.582;2022-07-18T04:22:50;15.43;82.97
69436;SHT31;56625;54.322;18.582;2022-07-18T04:25:25;15.48;82.93
69436;SHT31;56625;54.322;18.582;2022-07-18T04:27:57;15.52;82.82
69436;SHT31;56625;54.322;18.582;2022-07-18T04:30:25;15.57;82.80
69436;SHT31;56625;54.322;18.582;2022-07-18T04:32:55;15.62;82.77
69436;SHT31;56625;54.322;18.582;2022-07-18T04:35:23;15.68;82.72
69436;SHT31;56625;54.322;18.582;2022-07-18T04:37:51;15.74;82.61
69436;SHT31;56625;54.322;18.582;2022-07-18T04:40:19;15.80;82.56
69436;SHT31;56625;54.322;18.582;2022-07-18T04:42:47;15.85;82.39
69436;SHT31;56625;54.322;18.582;2022-07-18T04:45:16;15.92;82.33
69436;SHT31;56625;54.322;18.582;2022-07-18T04:47:45;15.97;82.24
69436;SHT31;56625;54.322;18.582;2022-07-18T04:50:13;16.05;82.14
69436;SHT31;56625;54.322;18.582;2022-07-18T04:52:42;16.09;82.04
69436;SHT31;56625;54.322;18.582;2022-07-18T04:55:13;16.16;81.90
69436;SHT31;56625;54.322;18.582;2022-07-18T04:57:43;16.24;81.74
69436;SHT31;56625;54.322;18.582;2022-07-18T05:00:13;16.31;81.61
69436;SHT31;56625;54.322;18.582;2022-07-18T05:02:46;16.37;81.41
69436;SHT31;56625;54.322;18.582;2022-07-18T05:05:17;16.45;81.25
69436;SHT31;56625;54.322;18.582;2022-07-18T05:07:47;16.53;81.08
69436;SHT31;56625;54.322;18.582;2022-07-18T05:10:17;16.62;80.95
69436;SHT31;56625;54.322;18.582;2022-07-18T05:12:49;16.69;80.87
69436;SHT31;56625;54.322;18.582;2022-07-18T05:15:20;16.78;80.66
69436;SHT31;56625;54.322;18.582;2022-07-18T05:17:51;16.91;80.51
69436;SHT31;56625;54.322;18.582;2022-07-18T05:20:20;17.03;80.22
69436;SHT31;56625;54.322;18.582;2022-07-18T05:22:52;17.16;80.08
69436;SHT31;56625;54.322;18.582;2022-07-18T05:25:21;17.28;79.57
69436;SHT31;56625;54.322;18.582;2022-07-18T05:27:50;17.36;79.18
69436;SHT31;56625;54.322;18.582;2022-07-18T05:30:19;17.47;79.00
69436;SHT31;56625;54.322;18.582;2022-07-18T05:32:48;17.64;78.59
69436;SHT31;56625;54.322;18.582;2022-07-18T05:35:17;17.82;78.20
69436;SHT31;56625;54.322;18.582;2022-07-18T05:37:45;18.07;77.31
69436;SHT31;56625;54.322;18.582;2022-07-18T05:40:13;18.29;76.69
69436;SHT31;56625;54.322;18.582;2022-07-18T05:42:42;18.47;76.39
69436;SHT31;56625;54.322;18.582;2022-07-18T05:45:21;18.64;75.80
69436;SHT31;56625;54.322;18.582;2022-07-18T05:47:52;18.73;75.26
69436;SHT31;56625;54.322;18.582;2022-07-18T05:50:21;18.82;75.02
69436;SHT31;56625;54.322;18.582;2022-07-18T05:52:51;18.85;74.47
69436;SHT31;56625;54.322;18.582;2022-07-18T05:55:19;18.86;74.66
69436;SHT31;56625;54.322;18.582;2022-07-18T05:57:47;18.95;74.17
69436;SHT31;56625;54.322;18.582;2022-07-18T06:00:17;19.00;74.03
69436;SHT31;56625;54.322;18.582;2022-07-18T06:02:47;19.02;73.46
69436;SHT31;56625;54.322;18.582;2022-07-18T06:05:17;19.03;73.56
69436;SHT31;56625;54.322;18.582;2022-07-18T06:07:50;19.01;73.72
69436;SHT31;56625;54.322;18.582;2022-07-18T06:10:20;19.04;73.85
69436;SHT31;56625;54.322;18.582;2022-07-18T06:12:51;19.09;73.71
69436;SHT31;56625;54.322;18.582;2022-07-18T06:15:20;19.12;73.17
69436;SHT31;56625;54.322;18.582;2022-07-18T06:17:48;19.11;73.00
69436;SHT31;56625;54.322;18.582;2022-07-18T06:20:16;19.11;73.07
69436;SHT31;56625;54.322;18.582;2022-07-18T06:22:44;19.15;73.25
69436;SHT31;56625;54.322;18.582;2022-07-18T06:25:12;19.20;72.92
69436;SHT31;56625;54.322;18.582;2022-07-18T06:27:40;19.26;72.74
69436;SHT31;56625;54.322;18.582;2022-07-18T06:30:09;19.29;72.82
69436;SHT31;56625;54.322;18.582;2022-07-18T06:32:37;19.30;72.46
69436;SHT31;56625;54.322;18.582;2022-07-18T06:35:06;19.22;72.32
69436;SHT31;56625;54.322;18.582;2022-07-18T06:37:35;19.18;72.66
69436;SHT31;56625;54.322;18.582;2022-07-18T06:40:05;19.22;72.64
69436;SHT31;56625;54.322;18.582;2022-07-18T06:42:34;19.22;72.59
69436;SHT31;56625;54.322;18.582;2022-07-18T06:45:02;19.24;72.25
69436;SHT31;56625;54.322;18.582;2022-07-18T06:47:39;19.26;72.27
69436;SHT31;56625;54.322;18.582;2022-07-18T06:50:08;19.31;72.18
69436;SHT31;56625;54.322;18.582;2022-07-18T06:52:41;19.39;72.14
69436;SHT31;56625;54.322;18.582;2022-07-18T06:55:12;19.49;72.16
69436;SHT31;56625;54.322;18.582;2022-07-18T06:57:41;19.57;71.91
69436;SHT31;56625;54.322;18.582;2022-07-18T07:00:11;19.59;71.53
69436;SHT31;56625;54.322;18.582;2022-07-18T07:02:45;19.59;71.50
69436;SHT31;56625;54.322;18.582;2022-07-18T07:05:17;19.57;71.58
69436;SHT31;56625;54.322;18.582;2022-07-18T07:07:47;19.59;71.82
69436;SHT31;56625;54.322;18.582;2022-07-18T07:10:16;19.59;72.46
69436;SHT31;56625;54.322;18.582;2022-07-18T07:12:49;19.62;72.92
69436;SHT31;56625;54.322;18.582;2022-07-18T07:15:20;19.61;72.88
69436;SHT31;56625;54.322;18.582;2022-07-18T07:17:50;19.58;72.07
69436;SHT31;56625;54.322;18.582;2022-07-18T07:20:19;19.51;71.94
69436;SHT31;56625;54.322;18.582;2022-07-18T07:22:53;19.48;72.30
69436;SHT31;56625;54.322;18.582;2022-07-18T07:25:25;19.50;72.57
69436;SHT31;56625;54.322;18.582;2022-07-18T07:27:54;19.49;72.27
69436;SHT31;56625;54.322;18.582;2022-07-18T07:30:22;19.49;72.57
69436;SHT31;56625;54.322;18.582;2022-07-18T07:32:51;19.52;72.99
69436;SHT31;56625;54.322;18.582;2022-07-18T07:35:19;19.51;72.66
69436;SHT31;56625;54.322;18.582;2022-07-18T07:37:55;19.49;71.90
69436;SHT31;56625;54.322;18.582;2022-07-18T07:40:27;19.43;72.20
69436;SHT31;56625;54.322;18.582;2022-07-18T07:43:06;19.40;72.45
69436;SHT31;56625;54.322;18.582;2022-07-18T07:45:38;19.36;71.79
69436;SHT31;56625;54.322;18.582;2022-07-18T07:48:07;19.32;71.94
69436;SHT31;56625;54.322;18.582;2022-07-18T07:50:36;19.30;71.79
69436;SHT31;56625;54.322;18.582;2022-07-18T07:53:04;19.25;71.90
69436;SHT31;56625;54.322;18.582;2022-07-18T07:55:32;19.21;71.91
69436;SHT31;56625;54.322;18.582;2022-07-18T07:58:01;19.21;72.16
69436;SHT31;56625;54.322;18.582;2022-07-18T08:00:32;19.21;72.25
69436;SHT31;56625;54.322;18.582;2022-07-18T08:03:01;19.21;72.26
69436;SHT31;56625;54.322;18.582;2022-07-18T08:05:36;19.25;72.28
69436;SHT31;56625;54.322;18.582;2022-07-18T08:08:11;19.31;72.44
69436;SHT31;56625;54.322;18.582;2022-07-18T08:10:39;19.35;72.11
69436;SHT31;56625;54.322;18.582;2022-07-18T08:13:11;19.41;72.03
69436;SHT31;56625;54.322;18.582;2022-07-18T08:15:40;19.47;71.79
69436;SHT31;56625;54.322;18.582;2022-07-18T08:18:08;19.50;71.65
69436;SHT31;56625;54.322;18.582;2022-07-18T08:20:36;19.56;71.89
69436;SHT31;56625;54.322;18.582;2022-07-18T08:23:07;19.61;71.94
69436;SHT31;56625;54.322;18.582;2022-07-18T08:25:39;19.67;71.20
69436;SHT31;56625;54.322;18.582;2022-07-18T08:28:09;19.67;70.65
69436;SHT31;56625;54.322;18.582;2022-07-18T08:30:37;19.71;70.55
69436;SHT31;56625;54.322;18.582;2022-07-18T08:33:06;19.73;69.71
69436;SHT31;56625;54.322;18.582;2022-07-18T08:35:36;19.76;69.14
69436;SHT31;56625;54.322;18.582;2022-07-18T08:38:05;19.82;69.22
69436;SHT31;56625;54.322;18.582;2022-07-18T08:40:33;19.92;69.18
69436;SHT31;56625;54.322;18.582;2022-07-18T08:43:02;20.01;68.93
69436;SHT31;56625;54.322;18.582;2022-07-18T08:45:51;20.06;68.61
69436;SHT31;56625;54.322;18.582;2022-07-18T08:48:24;20.08;68.87
69436;SHT31;56625;54.322;18.582;2022-07-18T08:50:52;20.09;68.61
69436;SHT31;56625;54.322;18.582;2022-07-18T08:53:20;20.02;68.32
69436;SHT31;56625;54.322;18.582;2022-07-18T08:55:48;19.92;68.09
69436;SHT31;56625;54.322;18.582;2022-07-18T08:58:16;19.84;68.60
69436;SHT31;56625;54.322;18.582;2022-07-18T09:01:05;19.82;68.78
69436;SHT31;56625;54.322;18.582;2022-07-18T09:03:34;19.80;69.11
69436;SHT31;56625;54.322;18.582;2022-07-18T09:06:06;19.81;69.14
69436;SHT31;56625;54.322;18.582;2022-07-18T09:08:38;19.80;68.92
69436;SHT31;56625;54.322;18.582;2022-07-18T09:11:25;19.81;69.11
69436;SHT31;56625;54.322;18.582;2022-07-18T09:14:26;19.93;69.14
69436;SHT31;56625;54.322;18.582;2022-07-18T09:17:00;20.07;69.00
69436;SHT31;56625;54.322;18.582;2022-07-18T09:19:55;20.23;69.21
69436;SHT31;56625;54.322;18.582;2022-07-18T09:22:32;20.35;69.02
69436;SHT31;56625;54.322;18.582;2022-07-18T09:27:47;20.56;67.55
69436;SHT31;56625;54.322;18.582;2022-07-18T09:35:32;20.89;66.48
69436;SHT31;56625;54.322;18.582;2022-07-18T09:38:11;20.93;65.51
69436;SHT31;56625;54.322;18.582;2022-07-18T09:40:43;21.05;65.56
69436;SHT31;56625;54.322;18.582;2022-07-18T09:43:16;21.11;64.97
69436;SHT31;56625;54.322;18.582;2022-07-18T09:45:47;21.12;63.36
69436;SHT31;56625;54.322;18.582;2022-07-18T09:48:25;21.05;62.81
69436;SHT31;56625;54.322;18.582;2022-07-18T09:50:56;21.01;62.62
69436;SHT31;56625;54.322;18.582;2022-07-18T09:53:27;20.96;62.26
69436;SHT31;56625;54.322;18.582;2022-07-18T09:56:03;21.00;62.72
69436;SHT31;56625;54.322;18.582;2022-07-18T09:58:35;21.01;62.58
69436;SHT31;56625;54.322;18.582;2022-07-18T10:01:06;21.04;62.55
69436;SHT31;56625;54.322;18.582;2022-07-18T10:03:36;21.20;62.71
69436;SHT31;56625;54.322;18.582;2022-07-18T10:06:07;21.42;62.05
69436;SHT31;56625;54.322;18.582;2022-07-18T10:08:36;21.60;62.35
69436;SHT31;56625;54.322;18.582;2022-07-18T10:11:04;21.75;62.39
69436;SHT31;56625;54.322;18.582;2022-07-18T10:13:35;21.91;61.59
69436;SHT31;56625;54.322;18.582;2022-07-18T10:16:05;21.87;61.19
69436;SHT31;56625;54.322;18.582;2022-07-18T10:18:35;21.73;61.67
69436;SHT31;56625;54.322;18.582;2022-07-18T10:21:04;21.61;61.68
69436;SHT31;56625;54.322;18.582;2022-07-18T10:26:10;21.37;61.99
69436;SHT31;56625;54.322;18.582;2022-07-18T10:39:34;21.76;60.77
69436;SHT31;56625;54.322;18.582;2022-07-18T10:42:22;21.74;60.66
69436;SHT31;56625;54.322;18.582;2022-07-18T10:44:51;21.67;61.00
69436;SHT31;56625;54.322;18.582;2022-07-18T10:47:20;21.73;61.33
69436;SHT31;56625;54.322;18.582;2022-07-18T10:57:40;21.88;61.66
69436;SHT31;56625;54.322;18.582;2022-07-18T11:00:17;22.00;61.31
69436;SHT31;56625;54.322;18.582;2022-07-18T11:08:19;22.52;60.23
69436;SHT31;56625;54.322;18.582;2022-07-18T11:15:53;22.95;58.62
69436;SHT31;56625;54.322;18.582;2022-07-18T11:24:05;22.43;59.62
69436;SHT31;56625;54.322;18.582;2022-07-18T11:26:43;22.35;60.10
69436;SHT31;56625;54.322;18.582;2022-07-18T11:29:16;22.40;59.92
69436;SHT31;56625;54.322;18.582;2022-07-18T11:31:52;22.44;60.00
69436;SHT31;56625;54.322;18.582;2022-07-18T11:34:23;22.29;60.21
69436;SHT31;56625;54.322;18.582;2022-07-18T11:37:12;22.08;60.80
69436;SHT31;56625;54.322;18.582;2022-07-18T11:39:41;21.99;61.24
69436;SHT31;56625;54.322;18.582;2022-07-18T11:42:09;22.00;61.53
69436;SHT31;56625;54.322;18.582;2022-07-18T11:44:38;22.04;61.26
69436;SHT31;56625;54.322;18.582;2022-07-18T11:47:09;22.02;61.50
69436;SHT31;56625;54.322;18.582;2022-07-18T11:49:39;22.05;61.10
69436;SHT31;56625;54.322;18.582;2022-07-18T11:52:07;22.14;61.24
69436;SHT31;56625;54.322;18.582;2022-07-18T11:54:35;22.39;60.74
69436;SHT31;56625;54.322;18.582;2022-07-18T11:57:03;22.53;60.46
69436;SHT31;56625;54.322;18.582;2022-07-18T11:59:35;22.63;60.04
69436;SHT31;56625;54.322;18.582;2022-07-18T12:02:08;22.73;59.60
69436;SHT31;56625;54.322;18.582;2022-07-18T12:04:38;22.81;59.05
69436;SHT31;56625;54.322;18.582;2022-07-18T12:07:20;22.86;58.26
69436;SHT31;56625;54.322;18.582;2022-07-18T12:09:52;22.86;58.49
69436;SHT31;56625;54.322;18.582;2022-07-18T12:12:21;22.91;58.57
69436;SHT31;56625;54.322;18.582;2022-07-18T12:17:30;22.85;58.10
69436;SHT31;56625;54.322;18.582;2022-07-18T12:20:13;22.80;58.55
69436;SHT31;56625;54.322;18.582;2022-07-18T12:23:03;22.83;58.63
69436;SHT31;56625;54.322;18.582;2022-07-18T12:25:42;22.80;58.78
69436;SHT31;56625;54.322;18.582;2022-07-18T12:28:15;22.66;59.07
69436;SHT31;56625;54.322;18.582;2022-07-18T12:30:45;22.58;59.57
69436;SHT31;56625;54.322;18.582;2022-07-18T12:33:16;22.55;59.93
69436;SHT31;56625;54.322;18.582;2022-07-18T12:35:44;22.73;59.79
69436;SHT31;56625;54.322;18.582;2022-07-18T12:38:16;22.77;59.25
69436;SHT31;56625;54.322;18.582;2022-07-18T12:43:23;22.87;59.22
69436;SHT31;56625;54.322;18.582;2022-07-18T12:45:59;23.00;58.91
69436;SHT31;56625;54.322;18.582;2022-07-18T12:48:30;23.06;58.87
69436;SHT31;56625;54.322;18.582;2022-07-18T12:51:04;23.00;58.23
69436;SHT31;56625;54.322;18.582;2022-07-18T12:53:33;22.92;58.64
69436;SHT31;56625;54.322;18.582;2022-07-18T12:56:05;23.06;58.99
69436;SHT31;56625;54.322;18.582;2022-07-18T12:58:33;23.25;58.88
69436;SHT31;56625;54.322;18.582;2022-07-18T13:01:01;23.37;58.01
69436;SHT31;56625;54.322;18.582;2022-07-18T13:03:33;23.55;57.66
69436;SHT31;56625;54.322;18.582;2022-07-18T13:06:02;23.50;57.25
69436;SHT31;56625;54.322;18.582;2022-07-18T13:08:30;23.47;56.73
69436;SHT31;56625;54.322;18.582;2022-07-18T13:10:58;23.44;56.35
69436;SHT31;56625;54.322;18.582;2022-07-18T13:13:27;23.48;56.73
69436;SHT31;56625;54.322;18.582;2022-07-18T13:15:55;23.56;56.99
69436;SHT31;56625;54.322;18.582;2022-07-18T13:18:23;23.75;56.80
69436;SHT31;56625;54.322;18.582;2022-07-18T13:20:51;23.81;55.72
69436;SHT31;56625;54.322;18.582;2022-07-18T13:23:19;23.69;55.19
69436;SHT31;56625;54.322;18.582;2022-07-18T13:25:47;23.60;55.47
69436;SHT31;56625;54.322;18.582;2022-07-18T13:28:15;23.65;55.58
69436;SHT31;56625;54.322;18.582;2022-07-18T13:30:43;23.66;54.17
69436;SHT31;56625;54.322;18.582;2022-07-18T13:33:11;23.64;54.39
69436;SHT31;56625;54.322;18.582;2022-07-18T13:35:39;23.78;54.43
69436;SHT31;56625;54.322;18.582;2022-07-18T13:38:07;23.81;54.68
69436;SHT31;56625;54.322;18.582;2022-07-18T13:40:34;23.65;54.84
69436;SHT31;56625;54.322;18.582;2022-07-18T13:43:02;23.50;55.46
69436;SHT31;56625;54.322;18.582;2022-07-18T13:45:30;23.38;55.61
69436;SHT31;56625;54.322;18.582;2022-07-18T13:47:58;23.27;56.01
69436;SHT31;56625;54.322;18.582;2022-07-18T13:50:26;23.25;56.11
69436;SHT31;56625;54.322;18.582;2022-07-18T13:52:54;23.24;56.46
69436;SHT31;56625;54.322;18.582;2022-07-18T13:55:22;23.20;56.76
69436;SHT31;56625;54.322;18.582;2022-07-18T13:57:50;23.14;57.15
69436;SHT31;56625;54.322;18.582;2022-07-18T14:00:18;23.11;57.64
69436;SHT31;56625;54.322;18.582;2022-07-18T14:02:46;23.10;57.52
69436;SHT31;56625;54.322;18.582;2022-07-18T14:05:14;23.04;57.16
69436;SHT31;56625;54.322;18.582;2022-07-18T14:07:43;22.92;57.38
69436;SHT31;56625;54.322;18.582;2022-07-18T14:10:13;22.84;58.02
69436;SHT31;56625;54.322;18.582;2022-07-18T14:12:42;22.84;58.25
69436;SHT31;56625;54.322;18.582;2022-07-18T14:15:11;22.81;58.08
69436;SHT31;56625;54.322;18.582;2022-07-18T14:17:40;22.74;58.38
69436;SHT31;56625;54.322;18.582;2022-07-18T14:20:09;22.67;58.63
69436;SHT31;56625;54.322;18.582;2022-07-18T14:22:39;22.60;59.01
69436;SHT31;56625;54.322;18.582;2022-07-18T14:25:09;22.53;59.32
69436;SHT31;56625;54.322;18.582;2022-07-18T14:27:40;22.49;59.41
69436;SHT31;56625;54.322;18.582;2022-07-18T14:30:11;22.39;58.96
69436;SHT31;56625;54.322;18.582;2022-07-18T14:32:43;22.31;59.27
69436;SHT31;56625;54.322;18.582;2022-07-18T14:35:11;22.25;59.74
69436;SHT31;56625;54.322;18.582;2022-07-18T14:37:39;22.20;60.02
69436;SHT31;56625;54.322;18.582;2022-07-18T14:40:07;22.13;60.39
69436;SHT31;56625;54.322;18.582;2022-07-18T14:42:36;22.05;60.65
69436;SHT31;56625;54.322;18.582;2022-07-18T14:45:04;21.99;61.12
69436;SHT31;56625;54.322;18.582;2022-07-18T14:47:33;21.93;61.50
69436;SHT31;56625;54.322;18.582;2022-07-18T14:50:06;21.89;61.72
69436;SHT31;56625;54.322;18.582;2022-07-18T14:52:38;21.84;62.31
69436;SHT31;56625;54.322;18.582;2022-07-18T14:55:08;21.77;62.72
69436;SHT31;56625;54.322;18.582;2022-07-18T14:57:37;21.70;63.22
69436;SHT31;56625;54.322;18.582;2022-07-18T15:00:05;21.60;63.60
69436;SHT31;56625;54.322;18.582;2022-07-18T15:02:37;21.56;64.30
69436;SHT31;56625;54.322;18.582;2022-07-18T15:05:06;21.47;64.80
69436;SHT31;56625;54.322;18.582;2022-07-18T15:07:35;21.36;65.49
69436;SHT31;56625;54.322;18.582;2022-07-18T15:10:04;21.25;65.97
69436;SHT31;56625;54.322;18.582;2022-07-18T15:12:33;21.15;66.45
69436;SHT31;56625;54.322;18.582;2022-07-18T15:15:01;21.07;66.79
69436;SHT31;56625;54.322;18.582;2022-07-18T15:17:29;20.98;67.40
69436;SHT31;56625;54.322;18.582;2022-07-18T15:19:57;20.95;67.74
69436;SHT31;56625;54.322;18.582;2022-07-18T15:22:25;20.91;68.04
69436;SHT31;56625;54.322;18.582;2022-07-18T15:24:54;20.87;68.27
69436;SHT31;56625;54.322;18.582;2022-07-18T15:27:22;20.85;68.68
69436;SHT31;56625;54.322;18.582;2022-07-18T15:29:50;20.81;68.90
69436;SHT31;56625;54.322;18.582;2022-07-18T15:32:18;20.79;69.34
69436;SHT31;56625;54.322;18.582;2022-07-18T15:34:46;20.72;69.64
69436;SHT31;56625;54.322;18.582;2022-07-18T15:37:14;20.69;70.03
69436;SHT31;56625;54.322;18.582;2022-07-18T15:39:42;20.63;70.28
69436;SHT31;56625;54.322;18.582;2022-07-18T15:42:10;20.58;70.82
69436;SHT31;56625;54.322;18.582;2022-07-18T15:44:37;20.51;70.97
69436;SHT31;56625;54.322;18.582;2022-07-18T15:47:06;20.47;71.36
69436;SHT31;56625;54.322;18.582;2022-07-18T15:49:35;20.41;71.68
69436;SHT31;56625;54.322;18.582;2022-07-18T15:52:05;20.35;71.92
69436;SHT31;56625;54.322;18.582;2022-07-18T15:54:34;20.30;72.19
69436;SHT31;56625;54.322;18.582;2022-07-18T15:57:03;20.29;72.32
69436;SHT31;56625;54.322;18.582;2022-07-18T15:59:32;20.26;72.52
69436;SHT31;56625;54.322;18.582;2022-07-18T16:02:01;20.23;72.73
69436;SHT31;56625;54.322;18.582;2022-07-18T16:04:31;20.20;73.13
69436;SHT31;56625;54.322;18.582;2022-07-18T16:07:00;20.17;73.20
69436;SHT31;56625;54.322;18.582;2022-07-18T16:09:28;20.15;73.32
69436;SHT31;56625;54.322;18.582;2022-07-18T16:11:56;20.12;73.61
69436;SHT31;56625;54.322;18.582;2022-07-18T16:14:24;20.05;73.57
69436;SHT31;56625;54.322;18.582;2022-07-18T16:16:52;19.99;73.60
69436;SHT31;56625;54.322;18.582;2022-07-18T16:19:20;19.95;73.59
69436;SHT31;56625;54.322;18.582;2022-07-18T16:21:48;19.92;73.85
69436;SHT31;56625;54.322;18.582;2022-07-18T16:24:16;19.89;73.97